Luverne, Minnesota
Current Conditions -  °F | °C
As of 11:14 AM on Monday 22 Dec 2014 (Local Time) from KLYV Reporting Station
Drizzle Drizzle  
Wind Chill: 34°   Ceiling: 400
Heat Index: 41°   Visibility: 3mi
Dew Point: 37°   Wind: 12mph
Humidity: 87%   Direction: 160°SSE
Pressure: 29.46"   Gusts: 18mph
Location:  43.65°N, 96.21°W
Report Text: KLYV 221714Z AUTO 16010G16KT 3SM DZ OVC004 05/03 A2946 RMK AO2
Loading
Personal Weather Stations






























Interactive Weather Map New forecast layout! Learn more

10-Day Weather Forecast

Advertisements
Track Severe Weather on mobile